createdAt,value
2022-11-30T00:05:28.015Z,59.37
2022-11-30T00:11:23.315Z,55.47
2022-11-30T00:17:16.105Z,55.03
2022-11-30T00:23:10.254Z,51.08
2022-11-30T00:29:02.652Z,56.53
2022-11-30T00:34:55.015Z,54.00
2022-11-30T00:40:46.810Z,55.83
2022-11-30T00:46:39.027Z,59.92
2022-11-30T00:52:31.117Z,52.97
2022-11-30T00:58:23.255Z,52.38
2022-11-30T01:04:16.077Z,51.13
2022-11-30T01:10:09.195Z,56.55
2022-11-30T01:16:01.953Z,55.35
2022-11-30T01:21:54.026Z,58.20
2022-11-30T01:27:49.716Z,53.10
2022-11-30T01:33:43.318Z,49.53
2022-11-30T01:39:36.215Z,51.45
2022-11-30T01:45:28.236Z,45.38
2022-11-30T01:51:20.279Z,45.85
2022-11-30T01:57:28.075Z,52.22
2022-11-30T02:03:49.425Z,53.65
2022-11-30T02:09:45.354Z,58.35
2022-11-30T02:15:49.630Z,48.13
2022-11-30T02:21:52.675Z,49.42
2022-11-30T02:28:04.006Z,52.67
2022-11-30T02:33:59.835Z,54.33
2022-11-30T02:39:52.375Z,53.92
2022-11-30T02:46:03.291Z,55.42
2022-11-30T02:51:57.185Z,63.92
2022-11-30T02:57:48.884Z,59.33
2022-11-30T03:03:41.424Z,52.87
2022-11-30T03:09:33.635Z,58.73
2022-11-30T03:15:27.285Z,65.87
2022-11-30T03:21:19.395Z,61.80
2022-11-30T03:27:11.066Z,59.85
2022-11-30T03:33:03.418Z,44.50
2022-11-30T03:38:55.307Z,42.97
2022-11-30T03:44:47.386Z,41.88
2022-11-30T03:50:40.345Z,41.90
2022-11-30T03:56:33.085Z,56.47
2022-11-30T04:02:25.526Z,51.20
2022-11-30T04:08:17.596Z,52.80
2022-11-30T04:14:09.398Z,54.28
2022-11-30T04:20:01.305Z,56.95
2022-11-30T04:25:53.076Z,52.83
2022-11-30T04:31:45.329Z,51.05
2022-11-30T04:37:38.255Z,48.53
2022-11-30T04:43:30.325Z,51.90
2022-11-30T04:49:22.654Z,42.73
2022-11-30T04:55:14.565Z,48.13
2022-11-30T05:01:07.669Z,60.72
2022-11-30T05:06:59.897Z,36.60
2022-11-30T05:12:52.775Z,43.87
2022-11-30T05:18:44.446Z,47.92
2022-11-30T05:24:37.593Z,44.97
2022-11-30T05:30:29.590Z,46.25
2022-11-30T05:36:21.906Z,48.58
2022-11-30T05:42:14.507Z,35.40
2022-11-30T05:48:07.141Z,41.22
2022-11-30T05:53:59.916Z,42.50
2022-11-30T05:59:52.636Z,45.15
2022-11-30T06:05:44.415Z,45.20
2022-11-30T06:11:36.876Z,35.63
2022-11-30T06:17:28.759Z,40.25
2022-11-30T06:23:20.696Z,50.72
2022-11-30T06:29:13.678Z,48.92
2022-11-30T06:35:06.211Z,40.85
2022-11-30T06:41:10.787Z,44.85
2022-11-30T06:47:02.535Z,40.10
2022-11-30T06:52:56.765Z,28.23
2022-11-30T06:58:48.998Z,44.40
2022-11-30T07:04:40.936Z,37.72
2022-11-30T07:10:32.691Z,37.90
2022-11-30T07:16:26.185Z,34.00
2022-11-30T07:22:18.575Z,43.37
2022-11-30T07:28:11.176Z,38.73
2022-11-30T07:34:07.190Z,41.33
2022-11-30T07:39:59.921Z,43.35
2022-11-30T07:45:55.711Z,47.75
2022-11-30T07:51:47.963Z,42.67
2022-11-30T07:57:39.682Z,41.00
2022-11-30T08:03:36.768Z,40.47
2022-11-30T08:09:30.509Z,42.45
2022-11-30T08:15:27.370Z,38.05
2022-11-30T08:21:23.886Z,37.00
2022-11-30T08:27:16.546Z,41.17
2022-11-30T08:33:08.810Z,40.80
2022-11-30T08:39:03.146Z,29.95
2022-11-30T08:44:55.157Z,27.80
2022-11-30T08:50:47.272Z,31.55
2022-11-30T08:56:39.509Z,21.88
2022-11-30T09:02:32.372Z,33.45
2022-11-30T09:08:25.239Z,31.13
2022-11-30T09:14:16.880Z,28.40
2022-11-30T09:20:09.885Z,31.60
2022-11-30T09:26:07.932Z,33.60
2022-11-30T09:32:00.025Z,36.70
2022-11-30T09:37:54.416Z,37.75
2022-11-30T09:43:57.278Z,34.92
2022-11-30T09:49:49.439Z,35.15
2022-11-30T09:55:44.097Z,36.45
2022-11-30T10:01:37.798Z,36.75
2022-11-30T10:07:51.503Z,40.78
2022-11-30T10:14:39.467Z,39.15
2022-11-30T10:21:04.146Z,29.45
2022-11-30T10:26:58.898Z,34.17
2022-11-30T10:32:57.688Z,36.22
2022-11-30T10:38:55.076Z,35.95
2022-11-30T10:45:01.216Z,33.95
2022-11-30T10:50:54.488Z,33.85
2022-11-30T10:56:46.813Z,38.13
2022-11-30T11:02:47.108Z,26.30
2022-11-30T11:08:42.528Z,22.70
2022-11-30T11:14:38.143Z,36.83
2022-11-30T11:20:39.546Z,36.53
2022-11-30T11:26:32.026Z,37.67
2022-11-30T11:32:25.303Z,39.33
2022-11-30T11:38:29.838Z,37.50
2022-11-30T11:44:27.679Z,39.33
2022-11-30T11:51:04.498Z,37.67
2022-11-30T11:56:39.717Z,34.80
2022-11-30T12:02:40.821Z,31.70
2022-11-30T12:08:42.108Z,24.58
2022-11-30T12:14:35.546Z,33.30
2022-11-30T12:20:56.950Z,35.25
2022-11-30T12:26:56.088Z,28.02
2022-11-30T12:33:10.841Z,17.02
2022-11-30T12:39:20.624Z,21.58
2022-11-30T12:45:24.213Z,24.98
2022-11-30T12:51:29.556Z,30.08
2022-11-30T12:57:49.256Z,30.23
2022-11-30T13:03:48.051Z,30.40
2022-11-30T13:09:54.026Z,20.92
2022-11-30T13:15:49.344Z,31.33
2022-11-30T13:21:58.134Z,25.10
2022-11-30T13:28:01.755Z,29.77
2022-11-30T13:33:53.916Z,28.23
2022-11-30T13:39:51.806Z,28.40
2022-11-30T13:45:44.354Z,27.55
2022-11-30T13:51:39.567Z,25.05
2022-11-30T13:57:31.496Z,24.80
2022-11-30T14:03:29.880Z,17.17
2022-11-30T14:09:40.356Z,18.65
2022-11-30T14:15:39.053Z,24.73
2022-11-30T14:21:35.949Z,27.23
2022-11-30T14:27:30.008Z,30.35
2022-11-30T14:33:36.057Z,27.15
2022-11-30T14:39:36.597Z,20.90
2022-11-30T14:45:35.018Z,24.67
2022-11-30T14:51:26.908Z,24.83
2022-11-30T14:57:47.008Z,18.10
2022-11-30T15:03:40.911Z,25.20
2022-11-30T15:09:33.378Z,26.80
2022-11-30T15:15:28.269Z,22.25
2022-11-30T15:21:32.366Z,32.63
2022-11-30T15:27:25.350Z,25.92
2022-11-30T15:33:24.175Z,29.83
2022-11-30T15:39:23.287Z,25.15
2022-11-30T15:45:24.324Z,30.45
2022-11-30T15:51:38.734Z,20.35
2022-11-30T15:57:59.305Z,20.23
2022-11-30T16:03:58.344Z,28.35
2022-11-30T16:09:51.795Z,34.75
2022-11-30T16:15:48.825Z,20.75
2022-11-30T16:21:43.419Z,33.28
2022-11-30T16:27:36.365Z,32.22
2022-11-30T16:33:28.475Z,36.13
2022-11-30T16:39:21.026Z,29.63
2022-11-30T16:45:17.302Z,28.40
2022-11-30T16:51:17.567Z,26.92
2022-11-30T16:57:10.935Z,29.48
2022-11-30T17:03:24.135Z,32.83
2022-11-30T17:09:17.234Z,31.47
2022-11-30T17:15:16.647Z,31.73
2022-11-30T17:21:17.766Z,32.40
2022-11-30T17:27:12.244Z,29.98
2022-11-30T17:33:06.235Z,34.40
2022-11-30T17:38:58.397Z,33.60
2022-11-30T17:44:50.650Z,34.67
2022-11-30T17:50:43.594Z,35.33
2022-11-30T17:56:36.086Z,34.40
2022-11-30T18:02:28.591Z,33.28
2022-11-30T18:08:20.424Z,35.47
2022-11-30T18:14:12.370Z,33.78
2022-11-30T18:20:05.364Z,33.58
2022-11-30T18:25:57.631Z,34.15
2022-11-30T18:31:49.313Z,30.27
2022-11-30T18:37:41.874Z,33.30
2022-11-30T18:43:35.387Z,34.88
2022-11-30T18:49:27.604Z,24.63
2022-11-30T18:55:20.414Z,29.17
2022-11-30T19:01:18.632Z,29.70
2022-11-30T19:07:11.380Z,35.15
2022-11-30T19:13:06.160Z,36.05
2022-11-30T19:19:05.071Z,31.23
2022-11-30T19:25:01.637Z,34.60
2022-11-30T19:30:54.614Z,34.88
2022-11-30T19:36:47.380Z,36.63
2022-11-30T19:42:40.736Z,35.00
2022-11-30T19:48:34.875Z,28.77
2022-11-30T19:54:28.424Z,32.25
2022-11-30T20:00:21.916Z,28.80
2022-11-30T20:06:15.660Z,34.88
2022-11-30T20:12:08.211Z,22.10
2022-11-30T20:18:01.053Z,33.80
2022-11-30T20:23:58.240Z,35.13
2022-11-30T20:29:52.523Z,31.38
2022-11-30T20:35:45.213Z,26.33
2022-11-30T20:41:38.772Z,23.97
2022-11-30T20:47:35.377Z,30.45
2022-11-30T20:53:28.236Z,28.75
2022-11-30T20:59:23.968Z,27.50
2022-11-30T21:05:19.204Z,22.92
2022-11-30T21:11:14.455Z,18.35
2022-11-30T21:17:07.184Z,28.25
2022-11-30T21:22:59.954Z,25.27
2022-11-30T21:28:54.745Z,25.60
2022-11-30T21:34:48.175Z,27.05
2022-11-30T21:40:40.794Z,28.83
2022-11-30T21:46:34.072Z,25.67
2022-11-30T21:52:26.662Z,24.07
2022-11-30T22:04:14.791Z,26.33
2022-11-30T22:10:07.515Z,26.80
2022-11-30T22:16:02.878Z,28.65
2022-11-30T22:21:55.006Z,29.17
2022-11-30T22:27:47.124Z,27.55
2022-11-30T22:33:40.789Z,29.13
2022-11-30T22:39:34.484Z,28.90
2022-11-30T22:45:26.864Z,25.02
2022-11-30T22:51:24.712Z,26.85
2022-11-30T22:57:17.288Z,28.23
2022-11-30T23:03:10.006Z,31.40
2022-11-30T23:09:03.256Z,30.17
2022-11-30T23:14:54.959Z,28.23
2022-11-30T23:20:47.264Z,28.73
2022-11-30T23:26:40.007Z,26.52
2022-11-30T23:32:32.372Z,29.13
2022-11-30T23:38:24.086Z,24.58
2022-11-30T23:44:16.612Z,24.70
2022-11-30T23:50:09.893Z,28.00
2022-11-30T23:56:04.193Z,25.30
